Flight Track Log - Related Links

Times and Time Zones

All times are in EDT time to prevent confusion due to time zone crossing. See the DAL759 flight status page for this flight to view local times or setup timezone preferences in your user account.

Time Position Orientation Groundspeed Altitude Reporting Facility
EDT Latitude Longitude Course Direction KTS MPH feet Rate Location/Type
Wed 10:39:24 PM 44.9000 -93.2667 282° West 195 224 2,300  Level Minneapolis TRACON
Wed 10:39:48 PM 44.9111 -93.3061 292° West 221 254 3,000 2,824 Climbing Minneapolis Center
Wed 10:40:49 PM 44.9283 -93.4003 285° West 249 287 6,300 3,098 Climbing Minneapolis Center
Wed 10:41:00 PM 44.9373 -93.6840 282° West  Level FlightAware Approximate
Wed 10:41:50 PM 44.9433 -93.5028 282° West 267 307 9,300  Level Minneapolis Center
Wed 10:42:00 PM 44.9554 -93.8412 276° West  Level FlightAware Approximate
Wed 10:43:00 PM 44.9667 -93.9999 276° West  Level FlightAware Approximate
Wed 10:43:03 PM 44.9614 -93.6158 283° West 301 346 10,900  Level Minneapolis Center
Wed 10:44:00 PM 44.9913 -94.1556 282° West  Level FlightAware Approximate
Wed 10:44:05 PM 44.9881 -93.7792 283° West 357 411 13,500  Level Minneapolis Center
Wed 10:45:06 PM 45.0147 -93.9211 285° West 377 434 15,700 2,066 Climbing Minneapolis Center
Wed 10:46:07 PM 45.0389 -94.0650 283° West 378 435 17,700 2,115 Climbing Minneapolis Center
Wed 10:47:08 PM 45.0692 -94.2439 284° West 389 448 20,000 1,967 Climbing Minneapolis Center
Wed 10:48:09 PM 45.0947 -94.3981 283° West 400 460 21,700 1,567 Climbing Minneapolis Center
Wed 10:49:22 PM 45.1247 -94.5864 283° West 409 471 23,500 1,689 Climbing Minneapolis Center
Wed 10:50:24 PM 45.1483 -94.7294 283° West 407 468 25,500 1,756 Climbing Minneapolis Center
Wed 10:51:25 PM 45.1728 -94.8819 283° West 402 463 27,100 1,525 Climbing Minneapolis Center
Wed 10:52:26 PM 45.1978 -95.0339 283° West 399 459 28,600 1,426 Climbing Minneapolis Center
Wed 10:53:27 PM 45.2253 -95.2158 282° West 396 456 30,000 689 Climbing Minneapolis Center
Wed 10:54:28 PM 45.2494 -95.3686 283° West 399 459 30,000  Level Minneapolis Center
Wed 10:55:29 PM 45.2683 -95.4922 282° West 402 463 30,000  Level Minneapolis Center
Wed 10:56:31 PM 45.2969 -95.6767 282° West 401 461 30,000  Level Minneapolis Center
Wed 10:57:32 PM 45.3206 -95.8308 282° West 403 464 30,000  Level Minneapolis Center
Wed 10:58:33 PM 45.3447 -95.9819 283° West 397 457 30,000  Level Minneapolis Center
Wed 10:59:34 PM 45.3619 -96.1047 281° West 398 458 30,000  Level Minneapolis Center
Wed 11:00:39 PM 45.3944 -96.3169 282° West 395 455 30,000  Level Minneapolis Center
Wed 11:01:40 PM 45.4164 -96.4700 282° West 398 458 30,000  Level Minneapolis Center
Wed 11:02:53 PM 45.4378 -96.6222 281° West 395 455 30,000  Level Minneapolis Center
Wed 11:03:55 PM 45.4642 -96.8053 282° West 396 456 30,000  Level Minneapolis Center
Wed 11:04:56 PM 45.4858 -96.9558 282° West 393 452 30,000  Level Minneapolis Center
Wed 11:05:57 PM 45.5064 -97.1094 281° West 396 456 30,000  Level Minneapolis Center
Wed 11:06:58 PM 45.5281 -97.2622 281° West 395 455 30,000  Level Minneapolis Center
Wed 11:08:00 PM 45.5528 -97.4475 281° West 398 458 30,000  Level Minneapolis Center
Wed 11:09:01 PM 45.5744 -97.6019 281° West 400 460 30,000  Level Minneapolis Center
Wed 11:10:02 PM 45.5953 -97.7586 281° West 402 463 30,000  Level Minneapolis Center
Wed 11:11:03 PM 45.6156 -97.9142 281° West 402 463 30,000  Level Minneapolis Center
Wed 11:12:05 PM 45.6381 -98.0711 282° West 401 461 30,000  Level Minneapolis Center
Wed 11:13:06 PM 45.6619 -98.2503 281° West 411 473 30,000  Level Minneapolis Center
Wed 11:14:07 PM 45.6811 -98.4075 280° West 409 471 30,000  Level Minneapolis Center
Wed 11:15:08 PM 45.7019 -98.5675 281° West 409 471 30,000  Level Minneapolis Center
Wed 11:16:10 PM 45.7222 -98.7294 280° West 412 474 30,000  Level Minneapolis Center
Wed 11:17:11 PM 45.7422 -98.8889 280° West 411 473 30,000  Level Minneapolis Center
Wed 11:18:12 PM 45.7619 -99.0483 280° West 410 472 30,000  Level Minneapolis Center
Wed 11:19:14 PM 45.7800 -99.2081 279° West 409 471 30,000  Level Minneapolis Center
Wed 11:20:15 PM 45.7992 -99.3672 280° West 408 470 30,000  Level Minneapolis Center
Wed 11:21:16 PM 45.8186 -99.5261 280° West 407 468 30,000  Level Minneapolis Center
Wed 11:22:17 PM 45.8400 -99.7150 279° West 404 465 30,000  Level Minneapolis Center
Wed 11:23:19 PM 45.8572 -99.8711 279° West 401 461 30,000  Level Minneapolis Center
Wed 11:24:20 PM 45.8750 -100.0275 279° West 401 461 30,000  Level Minneapolis Center
Wed 11:25:21 PM 45.8931 -100.1853 279° West 401 461 30,000  Level Minneapolis Center
Wed 11:26:22 PM 45.9100 -100.3417 279° West 400 460 30,000  Level Minneapolis Center
Wed 11:27:23 PM 45.9236 -100.4658 279° West 397 457 30,000  Level Minneapolis Center
Wed 11:28:24 PM 45.9442 -100.6539 279° West 399 459 30,000  Level Minneapolis Center
Wed 11:29:26 PM 45.9608 -100.8100 279° West 398 458 30,000  Level Minneapolis Center
Wed 11:30:27 PM 45.9772 -100.9694 278° West 402 463 30,000  Level Minneapolis Center
Wed 11:31:28 PM 45.9931 -101.1264 278° West 400 460 30,000  Level Minneapolis Center
Wed 11:32:29 PM 46.0122 -101.3181 278° West 404 465 30,000  Level Minneapolis Center
Wed 11:33:30 PM 46.0283 -101.4747 278° West 400 460 30,000  Level Minneapolis Center
Wed 11:34:31 PM 46.0450 -101.6292 279° West 396 456 30,000  Level Minneapolis Center
Wed 11:35:32 PM 46.0608 -101.7864 278° West 397 457 30,000  Level Minneapolis Center
Wed 11:36:33 PM 46.0750 -101.9450 277° West 399 459 30,000  Level Minneapolis Center
Wed 11:37:34 PM 46.0908 -102.1003 278° West 397 457 30,000  Level Minneapolis Center
Wed 11:38:36 PM 46.1056 -102.2583 278° West 398 458 30,000  Level Minneapolis Center
Wed 11:39:37 PM 46.1200 -102.4172 278° West 400 460 30,000  Level Minneapolis Center
Wed 11:40:38 PM 46.1361 -102.5844 278° West 399 459 30,000  Level Minneapolis Center
Wed 11:41:39 PM 46.1497 -102.7417 277° West 397 457 30,000  Level Minneapolis Center
Wed 11:42:40 PM 46.1639 -102.9011 277° West 400 460 30,000  Level Minneapolis Center
Wed 11:43:41 PM 46.1767 -103.0628 277° West 405 466 30,000  Level Minneapolis Center
Wed 11:44:41 PM 46.1878 -103.1922 277° West 406 467 30,000  Level Minneapolis Center
Wed 11:45:43 PM 46.2028 -103.3836 277° West 403 464 30,000  Level Minneapolis Center
Wed 11:46:44 PM 46.2167 -103.5417 277° West 400 460 30,000  Level Minneapolis Center
Wed 11:46:59 PM 46.2192 -103.6058 273° West 400 460 30,000  Level Salt Lake Center
Wed 11:48:00 PM 46.2308 -103.7628 276° West 397 457 30,000  Level Salt Lake Center
Wed 11:49:01 PM 46.2433 -103.9189 277° West 394 453 30,000  Level Salt Lake Center
Wed 11:50:02 PM 46.2550 -104.0772 276° West 395 455 30,000  Level Salt Lake Center
Wed 11:51:03 PM 46.2672 -104.2342 276° West 394 453 30,000  Level Salt Lake Center
Wed 11:52:04 PM 46.2789 -104.3928 276° West 396 456 30,000  Level Salt Lake Center
Wed 11:53:05 PM 46.2894 -104.5483 276° West 393 452 30,000  Level Salt Lake Center
Wed 11:54:06 PM 46.3006 -104.7056 276° West 392 451 30,000 585 Level Salt Lake Center
Wed 11:55:08 PM 46.3122 -104.8758 276° West 393 452 31,200 976 Climbing Salt Lake Center
Wed 11:56:09 PM 46.3214 -105.0253 275° West 392 451 32,000 393 Climbing Salt Lake Center
Wed 11:57:10 PM 46.3308 -105.1969 275° West 389 448 32,000  Level Salt Lake Center
Wed 11:58:11 PM 46.3425 -105.3475 276° West 390 449 32,000  Level Salt Lake Center
Wed 11:59:12 PM 46.3514 -105.4981 275° West 393 452 32,000  Level Salt Lake Center
Thu 12:00:13 AM 46.3622 -105.6717 275° West 391 450 32,000  Level Salt Lake Center
Thu 12:01:14 AM 46.3714 -105.8244 275° West 394 453 32,000  Level Salt Lake Center
Thu 12:02:15 AM 46.3872 -106.0044 277° West 399 459 32,000  Level Salt Lake Center
Thu 12:03:16 AM 46.4119 -106.1536 284° West 397 457 32,000  Level Salt Lake Center
Thu 12:04:17 AM 46.4367 -106.3042 283° West 401 461 32,000  Level Salt Lake Center
Thu 12:05:18 AM 46.4647 -106.4828 283° West 403 464 32,000  Level Salt Lake Center
Thu 12:06:19 AM 46.4869 -106.6336 282° West 403 464 32,000  Level Salt Lake Center
Thu 12:07:20 AM 46.5086 -106.7833 282° West 400 460 32,000  Level Salt Lake Center
Thu 12:08:21 AM 46.5358 -106.9586 283° West 398 458 32,000  Level Salt Lake Center
Thu 12:09:22 AM 46.5581 -107.1111 282° West 401 461 32,000  Level Salt Lake Center
Thu 12:10:23 AM 46.5825 -107.2853 282° West 398 458 32,000  Level Salt Lake Center
Thu 12:11:25 AM 46.6044 -107.4347 282° West 396 456 32,000  Level Salt Lake Center
Thu 12:12:26 AM 46.6250 -107.5842 281° West 394 453 32,000  Level Salt Lake Center
Thu 12:13:27 AM 46.6489 -107.7578 281° West 392 451 32,000  Level Salt Lake Center
Thu 12:14:28 AM 46.6697 -107.9061 282° West 393 452 32,000  Level Salt Lake Center
Thu 12:15:29 AM 46.6914 -108.0628 281° West 408 470 32,000  Level Salt Lake Center
Thu 12:16:30 AM 46.7136 -108.2375 281° West 396 456 32,000  Level Salt Lake Center
Thu 12:17:31 AM 46.7353 -108.3892 282° West 399 459 32,000  Level Salt Lake Center
Thu 12:18:32 AM 46.7581 -108.5653 281° West 397 457 32,000  Level Salt Lake Center
Thu 12:19:33 AM 46.7778 -108.7156 281° West 395 455 32,000  Level Salt Lake Center
Thu 12:20:34 AM 46.7978 -108.8653 281° West 395 455 32,000  Level Salt Lake Center
Thu 12:21:35 AM 46.8183 -109.0408 280° West 393 452 32,000  Level Salt Lake Center
Thu 12:22:36 AM 46.8403 -109.1983 282° West 391 450 32,000  Level Salt Lake Center
Thu 12:23:37 AM 46.8597 -109.3533 280° West 389 448 32,000  Level Salt Lake Center
Thu 12:24:38 AM 46.8772 -109.5094 279° West 390 449 32,000  Level Salt Lake Center
Thu 12:25:39 AM 46.8972 -109.6631 281° West 387 445 32,000  Level Salt Lake Center
Thu 12:26:40 AM 46.9161 -109.8178 280° West 387 445 32,000  Level Salt Lake Center
Thu 12:27:41 AM 46.9347 -109.9725 280° West 387 445 32,000  Level Salt Lake Center
Thu 12:28:43 AM 46.9522 -110.1267 279° West 386 444 32,000  Level Salt Lake Center
Thu 12:29:44 AM 46.9708 -110.2828 280° West 388 447 32,000  Level Salt Lake Center
Thu 12:30:45 AM 46.9881 -110.4372 279° West 386 444 32,000  Level Salt Lake Center
Thu 12:31:46 AM 47.0056 -110.5942 279° West 389 448 32,000  Level Salt Lake Center
Thu 12:32:47 AM 47.0233 -110.7506 280° West 390 449 32,000  Level Salt Lake Center
Thu 12:34:00 AM 47.0394 -110.9069 279° West 387 445 32,000  Level Salt Lake Center
Thu 12:35:01 AM 47.0606 -111.0939 279° West 388 447 32,000  Level Salt Lake Center
Thu 12:36:02 AM 47.0769 -111.2514 279° West 389 448 32,000  Level Salt Lake Center
Thu 12:37:03 AM 47.0972 -111.4403 279° West 389 448 32,000  Level Salt Lake Center
Thu 12:38:04 AM 47.1136 -111.5986 279° West 391 450 32,000  Level Salt Lake Center
Thu 12:39:05 AM 47.1283 -111.7567 278° West 391 450 32,000  Level Salt Lake Center
Thu 12:40:06 AM 47.1458 -111.9161 279° West 394 453 32,000  Level Salt Lake Center
Thu 12:41:07 AM 47.1611 -112.0750 278° West 393 452 32,000  Level Salt Lake Center
Thu 12:42:08 AM 47.1769 -112.2325 278° West 390 449 32,000  Level Salt Lake Center
Thu 12:43:09 AM 47.1914 -112.3911 278° West 391 450 32,000  Level Salt Lake Center
Thu 12:44:10 AM 47.2072 -112.5494 278° West 391 450 32,000  Level Salt Lake Center
Thu 12:45:11 AM 47.2233 -112.7097 278° West 395 455 32,000  Level Salt Lake Center
Thu 12:46:12 AM 47.2367 -112.8667 277° West 391 450 32,000  Level Salt Lake Center
Thu 12:47:13 AM 47.2519 -113.0308 278° West 394 453 32,000  Level Salt Lake Center
Thu 12:48:14 AM 47.2661 -113.1906 278° West 394 453 32,000  Level Salt Lake Center
Thu 12:49:15 AM 47.2806 -113.3542 277° West 392 451 32,000  Level Salt Lake Center
Thu 12:50:16 AM 47.2936 -113.5103 277° West 395 455 32,000  Level Salt Lake Center
Thu 12:51:17 AM 47.3072 -113.6703 277° West 394 453 32,000  Level Salt Lake Center
Thu 12:52:18 AM 47.3206 -113.8300 277° West 393 452 32,000  Level Salt Lake Center
Thu 12:53:19 AM 47.3342 -113.9908 277° West 394 453 32,000  Level Salt Lake Center
Thu 12:54:20 AM 47.3500 -114.1839 277° West 395 455 32,000  Level Salt Lake Center
Thu 12:55:20 AM 47.3628 -114.3458 277° West 396 456 32,000  Level Salt Lake Center
Thu 12:56:21 AM 47.3750 -114.5081 276° West 398 458 32,000  Level Salt Lake Center
Thu 12:57:22 AM 47.3883 -114.6694 277° West 395 455 32,000  Level Salt Lake Center
Thu 12:58:23 AM 47.3997 -114.8306 276° West 394 453 32,000  Level Salt Lake Center
Thu 12:59:24 AM 47.4111 -114.9897 276° West 390 449 32,000  Level Salt Lake Center
Thu 01:00:25 AM 47.4233 -115.1497 276° West 391 450 32,000  Level Salt Lake Center
Thu 01:01:26 AM 47.4347 -115.3119 276° West 395 455 32,000 -836 Level Salt Lake Center
Thu 01:02:27 AM 47.4456 -115.4706 276° West 391 450 30,300 -2,628 Descending Salt Lake Center
Thu 01:03:27 AM 47.4556 -115.6350 275° West 398 458 26,700 -3,273 Descending Salt Lake Center
Thu 01:04:28 AM 47.4667 -115.7992 276° West 402 463 23,700 -2,803 Descending Salt Lake Center
Thu 01:05:29 AM 47.4775 -115.9597 276° West 397 457 21,000 -2,607 Descending Salt Lake Center
Thu 01:06:30 AM 47.4858 -116.1208 274° West 387 445 18,400 -2,508 Descending Salt Lake Center
Thu 01:07:31 AM 47.4947 -116.2703 275° West 372 428 15,900 -2,459 Descending Salt Lake Center
Thu 01:08:32 AM 47.5136 -116.4128 281° West 362 417 13,400 -2,047 Descending Salt Lake Center
Thu 01:09:40 AM 47.5581 -116.5700 293° West 342 394 11,500 -1,676 Descending Seattle Center

Login

Don't have an account? Register now (free) for customized features, flight alerts, and more!